createdAt,value
2023-01-19T00:01:44.183Z,99610.66
2023-01-19T00:04:11.714Z,99613.72
2023-01-19T00:06:39.241Z,99618.34
2023-01-19T00:09:06.713Z,99616.34
2023-01-19T00:11:34.198Z,99614.41
2023-01-19T00:14:01.740Z,99616.19
2023-01-19T00:16:30.554Z,99619.69
2023-01-19T00:18:58.189Z,99621.16
2023-01-19T00:21:25.650Z,99618.03
2023-01-19T00:23:53.160Z,99616.38
2023-01-19T00:26:22.151Z,99614.84
2023-01-19T00:28:50.687Z,99617.06
2023-01-19T00:31:20.465Z,99619.72
2023-01-19T00:33:51.418Z,99626.63
2023-01-19T00:36:19.323Z,99626.72
2023-01-19T00:38:47.380Z,99627.59
2023-01-19T00:41:14.878Z,99623.78
2023-01-19T00:43:41.429Z,99628.03
2023-01-19T00:46:08.987Z,99634.59
2023-01-19T00:48:37.499Z,99634.34
2023-01-19T00:51:06.608Z,99637.09
2023-01-19T00:53:34.099Z,99641.63
2023-01-19T00:56:01.597Z,99641.03
2023-01-19T00:58:29.100Z,99635.69
2023-01-19T01:00:57.763Z,99643.78
2023-01-19T01:03:27.822Z,99641.81
2023-01-19T01:05:55.365Z,99649.38
2023-01-19T01:08:24.201Z,99660.38
2023-01-19T01:10:52.059Z,99654.59
2023-01-19T01:13:23.591Z,99654.59
2023-01-19T01:15:52.741Z,99653.19
2023-01-19T01:18:20.576Z,99663.94
2023-01-19T01:20:48.242Z,99661.47
2023-01-19T01:23:15.794Z,99664.50
2023-01-19T01:25:46.514Z,99660.13
2023-01-19T01:28:13.964Z,99657.13
2023-01-19T01:30:43.206Z,99658.03
2023-01-19T01:33:11.426Z,99662.34
2023-01-19T01:35:39.656Z,99677.66
2023-01-19T01:38:07.589Z,99687.66
2023-01-19T01:40:35.176Z,99683.63
2023-01-19T01:43:04.000Z,99679.84
2023-01-19T01:45:34.652Z,99673.16
2023-01-19T01:48:05.406Z,99670.59
2023-01-19T01:50:35.428Z,99672.03
2023-01-19T01:53:07.325Z,99671.94
2023-01-19T01:55:36.498Z,99669.34
2023-01-19T01:58:06.467Z,99666.22
2023-01-19T02:00:54.675Z,99675.19
2023-01-19T02:03:22.764Z,99676.81
2023-01-19T02:05:50.367Z,99678.28
2023-01-19T02:08:38.938Z,99678.63
2023-01-19T02:11:24.623Z,99680.53
2023-01-19T02:13:53.907Z,99676.44
2023-01-19T02:16:21.459Z,99673.47
2023-01-19T02:18:49.459Z,99671.22
2023-01-19T02:21:21.078Z,99674.94
2023-01-19T02:23:51.180Z,99677.66
2023-01-19T02:26:20.426Z,99684.97
2023-01-19T02:28:51.251Z,99689.63
2023-01-19T02:31:19.244Z,99695.28
2023-01-19T02:33:46.841Z,99685.81
2023-01-19T02:36:16.587Z,99687.16
2023-01-19T02:38:45.940Z,99683.63
2023-01-19T02:41:18.095Z,99679.25
2023-01-19T02:43:47.204Z,99680.84
2023-01-19T02:46:15.483Z,99682.88
2023-01-19T02:48:43.761Z,99678.63
2023-01-19T02:51:13.556Z,99678.38
2023-01-19T02:54:01.452Z,99676.72
2023-01-19T02:56:40.814Z,99676.84
2023-01-19T02:59:16.258Z,99664.94
2023-01-19T03:01:57.702Z,99652.97
2023-01-19T03:04:29.954Z,99658.91
2023-01-19T03:07:02.176Z,99660.13
2023-01-19T03:09:33.608Z,99659.56
2023-01-19T03:12:07.927Z,99650.53
2023-01-19T03:14:40.032Z,99656.06
2023-01-19T03:17:08.695Z,99654.91
2023-01-19T03:19:38.998Z,99651.34
2023-01-19T03:22:11.639Z,99655.75
2023-01-19T03:24:41.520Z,99644.91
2023-01-19T03:27:15.195Z,99662.22
2023-01-19T03:29:46.583Z,99659.56
2023-01-19T03:32:17.158Z,99654.28
2023-01-19T03:34:45.195Z,99663.47
2023-01-19T03:37:14.392Z,99661.97
2023-01-19T03:39:41.891Z,99659.03
2023-01-19T03:42:13.652Z,99660.00
2023-01-19T03:44:42.637Z,99663.94
2023-01-19T03:47:12.382Z,99658.97
2023-01-19T03:49:40.409Z,99664.25
2023-01-19T03:52:07.908Z,99661.34
2023-01-19T03:54:35.549Z,99656.25
2023-01-19T03:57:03.493Z,99659.13
2023-01-19T03:59:32.291Z,99661.00
2023-01-19T04:02:00.493Z,99659.88
2023-01-19T04:04:28.025Z,99675.78
2023-01-19T04:06:55.868Z,99669.91
2023-01-19T04:09:23.381Z,99666.09
2023-01-19T04:11:51.334Z,99668.03
2023-01-19T04:14:19.047Z,99670.16
2023-01-19T04:16:47.852Z,99663.22
2023-01-19T04:19:15.449Z,99672.69
2023-01-19T04:21:42.953Z,99663.69
2023-01-19T04:24:10.591Z,99673.16
2023-01-19T04:26:38.075Z,99666.22
2023-01-19T04:29:05.595Z,99669.09
2023-01-19T04:31:35.466Z,99668.19
2023-01-19T04:34:04.417Z,99670.84
2023-01-19T04:36:31.964Z,99685.28
2023-01-19T04:38:59.455Z,99671.63
2023-01-19T04:41:26.956Z,99678.34
2023-01-19T04:43:54.436Z,99674.19
2023-01-19T04:46:21.999Z,99681.44
2023-01-19T04:48:49.555Z,99687.00
2023-01-19T04:51:18.393Z,99681.97
2023-01-19T04:53:45.887Z,99693.84
2023-01-19T04:56:13.465Z,99688.97
2023-01-19T04:58:41.121Z,99689.94
2023-01-19T05:01:09.418Z,99688.53
2023-01-19T05:03:37.083Z,99691.56
2023-01-19T05:06:04.930Z,99691.84
2023-01-19T05:08:33.796Z,99678.06
2023-01-19T05:11:01.388Z,99679.78
2023-01-19T05:13:28.991Z,99679.22
2023-01-19T05:15:56.517Z,99682.38
2023-01-19T05:18:24.147Z,99685.97
2023-01-19T05:20:51.619Z,99682.00
2023-01-19T05:23:19.146Z,99691.38
2023-01-19T05:25:47.974Z,99686.03
2023-01-19T05:28:16.686Z,99691.81
2023-01-19T05:30:44.248Z,99685.94
2023-01-19T05:33:11.736Z,99692.38
2023-01-19T05:35:39.190Z,99696.13
2023-01-19T05:38:06.685Z,99708.56
2023-01-19T05:40:34.405Z,99699.72
2023-01-19T05:43:05.208Z,99707.94
2023-01-19T05:45:33.426Z,99703.00
2023-01-19T05:48:01.267Z,99706.03
2023-01-19T05:50:28.765Z,99705.47
2023-01-19T05:52:56.366Z,99705.91
2023-01-19T05:55:24.047Z,99708.78
2023-01-19T05:57:51.531Z,99713.31
2023-01-19T06:00:21.436Z,99717.72
2023-01-19T06:02:49.281Z,99716.94
2023-01-19T06:05:17.103Z,99718.00
2023-01-19T06:07:44.571Z,99719.00
2023-01-19T06:10:12.516Z,99716.53
2023-01-19T06:12:41.353Z,99721.34
2023-01-19T06:15:09.495Z,99722.41
2023-01-19T06:17:38.540Z,99718.75
2023-01-19T06:20:06.972Z,99721.75
2023-01-19T06:22:34.557Z,99725.03
2023-01-19T06:25:02.275Z,99730.13
2023-01-19T06:27:29.771Z,99736.72
2023-01-19T06:29:57.262Z,99734.38
2023-01-19T06:32:24.813Z,99732.75
2023-01-19T06:34:54.207Z,99737.38
2023-01-19T06:37:21.916Z,99734.13
2023-01-19T06:39:49.389Z,99731.22
2023-01-19T06:42:16.899Z,99737.84
2023-01-19T06:44:47.481Z,99729.47
2023-01-19T06:47:16.407Z,99735.66
2023-01-19T06:49:44.484Z,99737.56
2023-01-19T06:52:15.810Z,99736.59
2023-01-19T06:54:45.388Z,99724.22
2023-01-19T06:57:13.260Z,99727.00
2023-01-19T06:59:40.970Z,99734.72
2023-01-19T07:02:27.715Z,99731.53
2023-01-19T07:04:56.087Z,99741.28
2023-01-19T07:07:25.104Z,99739.66
2023-01-19T07:09:54.007Z,99734.16
2023-01-19T07:12:21.797Z,99746.50
2023-01-19T07:14:49.500Z,99744.16
2023-01-19T07:17:17.044Z,99738.69
2023-01-19T07:19:44.527Z,99730.88
2023-01-19T07:22:12.036Z,99731.69
2023-01-19T07:24:41.304Z,99739.38
2023-01-19T07:27:08.748Z,99734.28
2023-01-19T07:29:36.217Z,99742.13
2023-01-19T07:32:03.681Z,99738.69
2023-01-19T07:34:31.203Z,99748.59
2023-01-19T07:36:58.704Z,99751.06
2023-01-19T07:39:26.150Z,99755.91
2023-01-19T07:41:55.236Z,99771.03
2023-01-19T07:44:22.934Z,99751.50
2023-01-19T07:46:51.093Z,99765.16
2023-01-19T07:49:18.560Z,99764.47
2023-01-19T07:51:46.026Z,99759.81
2023-01-19T07:54:13.513Z,99765.03
2023-01-19T07:56:40.977Z,99757.84
2023-01-19T07:59:10.761Z,99767.09
2023-01-19T08:01:38.613Z,99758.41
2023-01-19T08:04:06.259Z,99757.59
2023-01-19T08:06:35.047Z,99757.59
2023-01-19T08:09:05.408Z,99755.81
2023-01-19T08:11:32.977Z,99753.44
2023-01-19T08:14:00.775Z,99754.28
2023-01-19T08:16:29.559Z,99756.06
2023-01-19T08:18:57.043Z,99764.75
2023-01-19T08:21:24.549Z,99762.94
2023-01-19T08:23:55.825Z,99764.34
2023-01-19T08:26:29.093Z,99768.06
2023-01-19T08:28:57.937Z,99765.69
2023-01-19T08:31:26.244Z,99771.22
2023-01-19T08:33:55.139Z,99765.56
2023-01-19T08:36:24.869Z,99760.88
2023-01-19T08:38:52.354Z,99762.81
2023-01-19T08:41:19.852Z,99758.25
2023-01-19T08:43:47.546Z,99765.00
2023-01-19T08:46:17.320Z,99761.69
2023-01-19T08:48:45.240Z,99765.16
2023-01-19T08:51:15.160Z,99772.69
2023-01-19T08:53:42.762Z,99771.75
2023-01-19T08:56:12.492Z,99779.84
2023-01-19T08:58:40.531Z,99789.63
2023-01-19T09:01:08.751Z,99779.13
2023-01-19T09:03:36.379Z,99774.81
2023-01-19T09:06:06.601Z,99788.06
2023-01-19T09:08:35.426Z,99793.81
2023-01-19T09:11:03.408Z,99802.31
2023-01-19T09:13:30.918Z,99802.31
2023-01-19T09:15:58.494Z,99803.78
2023-01-19T09:18:25.984Z,99812.41
2023-01-19T09:20:54.860Z,99811.84
2023-01-19T09:23:22.562Z,99800.06
2023-01-19T09:25:57.149Z,99809.00
2023-01-19T09:28:24.853Z,99798.81
2023-01-19T09:30:52.372Z,99806.53
2023-01-19T09:33:20.616Z,99815.09
2023-01-19T09:35:51.717Z,99804.25
2023-01-19T09:38:20.512Z,99808.31
2023-01-19T09:40:51.735Z,99805.69
2023-01-19T09:43:25.460Z,99806.84
2023-01-19T09:45:55.239Z,99803.41
2023-01-19T09:48:29.519Z,99803.03
2023-01-19T09:51:00.535Z,99798.22
2023-01-19T09:53:41.313Z,99805.03
2023-01-19T09:56:13.723Z,99804.94
2023-01-19T09:58:41.734Z,99810.97
2023-01-19T10:01:16.791Z,99811.47
2023-01-19T10:03:44.354Z,99812.56
2023-01-19T10:06:13.899Z,99803.06
2023-01-19T10:08:46.648Z,99801.91
2023-01-19T10:11:41.882Z,99804.13
2023-01-19T10:14:19.705Z,99807.72
2023-01-19T10:16:52.633Z,99806.66
2023-01-19T10:19:23.569Z,99807.47
2023-01-19T10:21:51.701Z,99803.81
2023-01-19T10:24:22.536Z,99792.69
2023-01-19T10:26:52.650Z,99799.16
2023-01-19T10:29:23.997Z,99795.03
2023-01-19T10:31:53.086Z,99792.19
2023-01-19T10:34:23.574Z,99788.06
2023-01-19T10:36:56.321Z,99798.84
2023-01-19T10:39:23.925Z,99789.94
2023-01-19T10:41:54.145Z,99795.50
2023-01-19T10:44:25.859Z,99791.88
2023-01-19T10:46:54.348Z,99791.91
2023-01-19T10:49:27.417Z,99795.81
2023-01-19T10:51:55.741Z,99797.31
2023-01-19T10:54:24.080Z,99796.03
2023-01-19T10:56:54.629Z,99802.25
2023-01-19T10:59:34.160Z,99798.59
2023-01-19T11:02:16.140Z,99800.50
2023-01-19T11:04:47.262Z,99803.56
2023-01-19T11:07:18.739Z,99808.34
2023-01-19T11:09:46.419Z,99809.28
2023-01-19T11:12:19.691Z,99815.22
2023-01-19T11:14:48.207Z,99804.13
2023-01-19T11:17:20.432Z,99806.81
2023-01-19T11:19:56.160Z,99808.03
2023-01-19T11:22:28.071Z,99808.63
2023-01-19T11:24:59.324Z,99808.22
2023-01-19T11:27:28.916Z,99805.75
2023-01-19T11:30:05.230Z,99803.44
2023-01-19T11:32:35.662Z,99805.25
2023-01-19T11:35:03.816Z,99802.22
2023-01-19T11:37:34.425Z,99805.75
2023-01-19T11:40:04.138Z,99803.50
2023-01-19T11:42:36.453Z,99803.03
2023-01-19T11:45:07.585Z,99800.16
2023-01-19T11:47:39.896Z,99799.03
2023-01-19T11:50:14.665Z,99803.47
2023-01-19T11:52:46.118Z,99801.81
2023-01-19T11:55:18.888Z,99800.25
2023-01-19T11:57:49.830Z,99800.56
2023-01-19T12:00:36.117Z,99796.25
2023-01-19T12:03:09.363Z,99797.22
2023-01-19T12:05:37.755Z,99793.53
2023-01-19T12:08:07.169Z,99791.34
2023-01-19T12:10:37.176Z,99804.13
2023-01-19T12:13:06.000Z,99796.00
2023-01-19T12:15:37.411Z,99792.50
2023-01-19T12:18:07.658Z,99799.59
2023-01-19T12:20:37.916Z,99797.09
2023-01-19T12:23:14.887Z,99803.50
2023-01-19T12:25:48.388Z,99799.81
2023-01-19T12:28:18.467Z,99801.47
2023-01-19T12:30:46.050Z,99794.50
2023-01-19T12:33:35.773Z,99798.19
2023-01-19T12:36:05.059Z,99800.81
2023-01-19T12:38:44.915Z,99802.13
2023-01-19T12:41:23.696Z,99800.41
2023-01-19T12:44:23.039Z,99800.38
2023-01-19T12:46:52.625Z,99795.38
2023-01-19T12:49:26.187Z,99797.03
2023-01-19T12:51:55.149Z,99800.47
2023-01-19T12:54:28.153Z,99798.44
2023-01-19T12:56:58.953Z,99794.25
2023-01-19T12:59:28.620Z,99794.38
2023-01-19T13:02:39.148Z,99794.00
2023-01-19T13:05:23.197Z,99791.75
2023-01-19T13:08:22.714Z,99793.38
2023-01-19T13:11:26.006Z,99798.06
2023-01-19T13:14:36.245Z,99792.06
2023-01-19T13:17:20.318Z,99796.88
2023-01-19T13:20:01.483Z,99795.09
2023-01-19T13:23:02.560Z,99792.22
2023-01-19T13:25:33.658Z,99809.75
2023-01-19T13:28:01.910Z,99803.91
2023-01-19T13:30:30.664Z,99801.88
2023-01-19T13:33:06.501Z,99803.69
2023-01-19T13:35:34.009Z,99800.47
2023-01-19T13:38:01.746Z,99811.56
2023-01-19T13:40:36.717Z,99814.78
2023-01-19T13:43:04.655Z,99813.97
2023-01-19T13:45:34.309Z,99812.47
2023-01-19T13:48:06.053Z,99818.47
2023-01-19T13:50:35.399Z,99824.47
2023-01-19T13:53:04.591Z,99822.38
2023-01-19T13:55:32.500Z,99823.41
2023-01-19T13:58:00.025Z,99826.19
2023-01-19T14:00:29.002Z,99824.59
2023-01-19T14:02:59.133Z,99823.47
2023-01-19T14:05:29.814Z,99835.75
2023-01-19T14:08:05.373Z,99835.22
2023-01-19T14:10:33.647Z,99833.25
2023-01-19T14:13:02.634Z,99836.03
2023-01-19T14:15:33.729Z,99828.50
2023-01-19T14:18:13.140Z,99834.28
2023-01-19T14:20:42.497Z,99842.25
2023-01-19T14:23:41.346Z,99845.06
2023-01-19T14:26:43.114Z,99843.97
2023-01-19T14:29:25.491Z,99850.78
2023-01-19T14:32:04.860Z,99847.75
2023-01-19T14:34:38.785Z,99856.66
2023-01-19T14:37:16.602Z,99855.88
2023-01-19T14:39:46.293Z,99859.25
2023-01-19T14:42:17.771Z,99861.75
2023-01-19T14:44:48.888Z,99861.16
2023-01-19T14:47:33.109Z,99857.03
2023-01-19T14:50:04.917Z,99871.34
2023-01-19T14:52:35.901Z,99866.03
2023-01-19T14:55:06.694Z,99861.75
2023-01-19T14:57:35.321Z,99863.56
2023-01-19T15:00:11.731Z,99872.16
2023-01-19T15:02:39.306Z,99863.91
2023-01-19T15:05:08.773Z,99864.59
2023-01-19T15:07:38.082Z,99871.28
2023-01-19T15:10:06.625Z,99870.97
2023-01-19T15:12:34.097Z,99868.06
2023-01-19T15:15:02.198Z,99871.72
2023-01-19T15:17:29.759Z,99868.06
2023-01-19T15:19:58.009Z,99881.66
2023-01-19T15:22:28.216Z,99877.63
2023-01-19T15:24:59.960Z,99886.22
2023-01-19T15:27:27.915Z,99878.50
2023-01-19T15:29:55.516Z,99880.91
2023-01-19T15:32:23.050Z,99872.84
2023-01-19T15:34:50.561Z,99886.16
2023-01-19T15:37:18.078Z,99888.28
2023-01-19T15:39:45.691Z,99884.88
2023-01-19T15:42:15.904Z,99885.91
2023-01-19T15:44:45.031Z,99896.94
2023-01-19T15:47:12.651Z,99891.16
2023-01-19T15:49:40.246Z,99895.09
2023-01-19T15:52:07.909Z,99890.00
2023-01-19T15:54:35.578Z,99891.56
2023-01-19T15:57:03.144Z,99894.19
2023-01-19T15:59:32.477Z,99896.38
2023-01-19T16:02:00.253Z,99898.22
2023-01-19T16:04:28.096Z,99905.53
2023-01-19T16:06:55.670Z,99898.19
2023-01-19T16:09:23.615Z,99904.81
2023-01-19T16:11:51.602Z,99904.13
2023-01-19T16:14:19.266Z,99906.91
2023-01-19T16:16:48.346Z,99905.66
2023-01-19T16:19:16.590Z,99902.63
2023-01-19T16:21:44.894Z,99908.16
2023-01-19T16:24:12.564Z,99909.94
2023-01-19T16:26:40.710Z,99908.94
2023-01-19T16:29:10.634Z,99905.31
2023-01-19T16:31:39.257Z,99911.97
2023-01-19T16:34:08.561Z,99914.97
2023-01-19T16:36:37.679Z,99909.47
2023-01-19T16:39:07.364Z,99914.75
2023-01-19T16:41:35.221Z,99906.44
2023-01-19T16:44:02.963Z,99908.09
2023-01-19T16:46:33.832Z,99918.59
2023-01-19T16:49:03.113Z,99917.06
2023-01-19T16:51:32.517Z,99914.19
2023-01-19T16:54:00.128Z,99915.19
2023-01-19T16:56:27.881Z,99916.41
2023-01-19T16:58:55.533Z,99918.22
2023-01-19T17:01:23.491Z,99927.06
2023-01-19T17:03:51.514Z,99934.38
2023-01-19T17:06:22.586Z,99926.28
2023-01-19T17:08:52.750Z,99928.13
2023-01-19T17:11:21.851Z,99928.22
2023-01-19T17:13:50.086Z,99932.44
2023-01-19T17:16:17.765Z,99930.53
2023-01-19T17:18:45.387Z,99935.44
2023-01-19T17:21:14.120Z,99936.94
2023-01-19T17:23:43.807Z,99931.03
2023-01-19T17:26:12.759Z,99935.19
2023-01-19T17:28:40.816Z,99936.00
2023-01-19T17:31:09.393Z,99937.94
2023-01-19T17:33:37.492Z,99934.88
2023-01-19T17:36:05.540Z,99941.59
2023-01-19T17:38:33.376Z,99947.84
2023-01-19T17:41:01.053Z,99940.84
2023-01-19T17:43:30.049Z,99947.22
2023-01-19T17:45:57.808Z,99953.69
2023-01-19T17:48:25.678Z,99945.38
2023-01-19T17:50:54.145Z,99947.34
2023-01-19T17:53:23.464Z,99948.41
2023-01-19T17:55:51.036Z,99957.41
2023-01-19T17:58:18.586Z,99954.56
2023-01-19T18:00:47.699Z,99960.31
2023-01-19T18:03:15.477Z,99961.59
2023-01-19T18:05:54.018Z,99949.31
2023-01-19T18:08:21.885Z,99958.97
2023-01-19T18:10:54.448Z,99964.63
2023-01-19T18:13:22.286Z,99954.72
2023-01-19T18:15:51.870Z,99951.81
2023-01-19T18:18:19.564Z,99965.34
2023-01-19T18:20:47.023Z,99961.34
2023-01-19T18:23:14.941Z,99958.03
2023-01-19T18:25:43.115Z,99958.97
2023-01-19T18:28:10.678Z,99957.47
2023-01-19T18:30:38.735Z,99953.19
2023-01-19T18:33:07.633Z,99958.06
2023-01-19T18:35:36.021Z,99959.41
2023-01-19T18:38:03.473Z,99957.31
2023-01-19T18:40:30.943Z,99964.53
2023-01-19T18:42:58.413Z,99967.38
2023-01-19T18:45:25.969Z,99971.09
2023-01-19T18:47:53.458Z,99972.22
2023-01-19T18:50:22.469Z,99970.56
2023-01-19T18:52:51.296Z,99983.66
2023-01-19T18:55:19.050Z,99979.56
2023-01-19T18:57:46.493Z,99976.94
2023-01-19T19:00:15.106Z,99979.03
2023-01-19T19:02:42.736Z,99979.00
2023-01-19T19:05:10.570Z,99976.09
2023-01-19T19:07:39.374Z,99977.47
2023-01-19T19:10:07.876Z,99983.72
2023-01-19T19:12:35.481Z,99989.38
2023-01-19T19:15:02.936Z,99983.94
2023-01-19T19:17:30.434Z,99983.22
2023-01-19T19:19:57.952Z,99984.88
2023-01-19T19:22:25.719Z,99987.06
2023-01-19T19:24:54.688Z,99989.91
2023-01-19T19:27:22.433Z,99991.88
2023-01-19T19:29:50.231Z,99991.09
2023-01-19T19:32:20.319Z,99998.25
2023-01-19T19:34:50.504Z,99995.69
2023-01-19T19:37:18.109Z,99999.00
2023-01-19T19:39:45.625Z,99999.84
2023-01-19T19:42:14.655Z,100000.28
2023-01-19T19:44:42.484Z,100001.50
2023-01-19T19:47:10.188Z,100006.03
2023-01-19T19:49:37.910Z,100006.72
2023-01-19T19:52:08.697Z,100013.97
2023-01-19T19:54:36.557Z,100009.13
2023-01-19T19:57:04.432Z,100008.59
2023-01-19T19:59:33.485Z,100021.28
2023-01-19T20:02:01.205Z,100011.44
2023-01-19T20:04:28.837Z,100015.56
2023-01-19T20:06:56.353Z,100012.94
2023-01-19T20:09:24.148Z,100016.81
2023-01-19T20:11:52.418Z,100023.63
2023-01-19T20:14:22.325Z,100024.28
2023-01-19T20:16:52.206Z,100031.31
2023-01-19T20:19:19.787Z,100028.28
2023-01-19T20:21:47.513Z,100034.25
2023-01-19T20:24:17.099Z,100035.31
2023-01-19T20:26:46.854Z,100025.63
2023-01-19T20:29:14.429Z,100033.31
2023-01-19T20:31:44.307Z,100029.34
2023-01-19T20:34:15.585Z,100031.25
2023-01-19T20:36:44.235Z,100024.66
2023-01-19T20:39:12.711Z,100027.13
2023-01-19T20:41:44.888Z,100029.03
2023-01-19T20:44:12.856Z,100031.91
2023-01-19T20:46:40.543Z,100028.09
2023-01-19T20:49:08.200Z,100032.50
2023-01-19T20:51:37.374Z,100039.22
2023-01-19T20:54:05.142Z,100030.47
2023-01-19T20:56:32.747Z,100029.81
2023-01-19T20:59:02.003Z,100031.94
2023-01-19T21:01:29.653Z,100031.94
2023-01-19T21:03:57.430Z,100041.03
2023-01-19T21:06:25.571Z,100044.03
2023-01-19T21:08:54.912Z,100039.78
2023-01-19T21:11:23.937Z,100042.13
2023-01-19T21:13:55.676Z,100053.72
2023-01-19T21:16:24.401Z,100050.25
2023-01-19T21:18:52.193Z,100050.84
2023-01-19T21:21:29.735Z,100057.41
2023-01-19T21:24:00.516Z,100058.56
2023-01-19T21:26:29.641Z,100064.59
2023-01-19T21:28:58.303Z,100064.59
2023-01-19T21:31:27.813Z,100064.59
2023-01-19T21:33:55.955Z,100068.19
2023-01-19T21:36:24.538Z,100068.72
2023-01-19T21:38:52.351Z,100071.34
2023-01-19T21:41:21.442Z,100069.03
2023-01-19T21:43:49.001Z,100069.44
2023-01-19T21:46:18.865Z,100072.06
2023-01-19T21:48:46.807Z,100072.59
2023-01-19T21:51:14.806Z,100074.53
2023-01-19T21:53:42.826Z,100077.88
2023-01-19T21:56:11.315Z,100079.91
2023-01-19T21:58:40.307Z,100080.75
2023-01-19T22:01:10.748Z,100085.41
2023-01-19T22:03:38.484Z,100088.88
2023-01-19T22:06:07.200Z,100088.16
2023-01-19T22:08:34.817Z,100086.63
2023-01-19T22:11:05.327Z,100088.03
2023-01-19T22:13:33.143Z,100087.38
2023-01-19T22:16:02.938Z,100084.38
2023-01-19T22:18:35.221Z,100099.88
2023-01-19T22:21:10.587Z,100098.81
2023-01-19T22:23:38.288Z,100102.44
2023-01-19T22:26:06.313Z,100107.34
2023-01-19T22:28:33.881Z,100104.38
2023-01-19T22:31:08.553Z,100109.88
2023-01-19T22:33:36.348Z,100112.97
2023-01-19T22:36:12.553Z,100112.13
2023-01-19T22:38:40.562Z,100116.78
2023-01-19T22:41:15.928Z,100115.69
2023-01-19T22:43:44.053Z,100121.34
2023-01-19T22:46:13.062Z,100116.50
2023-01-19T22:48:41.386Z,100127.78
2023-01-19T22:51:09.246Z,100118.88
2023-01-19T22:53:36.844Z,100124.19
2023-01-19T22:56:11.693Z,100117.16
2023-01-19T22:58:40.799Z,100122.97
2023-01-19T23:01:09.020Z,100127.06
2023-01-19T23:03:38.040Z,100120.34
2023-01-19T23:06:06.300Z,100132.88
2023-01-19T23:08:34.202Z,100133.03
2023-01-19T23:11:05.413Z,100133.91
2023-01-19T23:13:32.947Z,100127.56
2023-01-19T23:16:00.807Z,100133.78
2023-01-19T23:18:28.468Z,100136.97
2023-01-19T23:21:03.256Z,100136.28
2023-01-19T23:23:30.890Z,100137.09
2023-01-19T23:26:01.274Z,100139.81
2023-01-19T23:28:28.899Z,100140.22
2023-01-19T23:30:56.657Z,100138.66
2023-01-19T23:33:24.426Z,100148.63
2023-01-19T23:35:51.975Z,100141.66
2023-01-19T23:38:22.470Z,100148.53
2023-01-19T23:40:50.271Z,100142.78
2023-01-19T23:43:17.938Z,100148.84
2023-01-19T23:45:45.543Z,100148.66
2023-01-19T23:48:13.088Z,100149.78
2023-01-19T23:50:41.462Z,100149.41
2023-01-19T23:53:09.228Z,100142.16
2023-01-19T23:55:38.154Z,100151.44
2023-01-19T23:58:05.893Z,100163.03
